Latest Coastal Weather Observations for Red Rocks Point

IDW60701

Issued at 3:32 am WST Wednesday 25 May 2016 (issued every 10 minutes, with the page automatically refreshed every 10 minutes)

About coastal observations | Map of coastal stations | Coastal observations for WA | Marine services | Other Formats
Station Details ID: 011053 Name: RED ROCKS POINT Lat: -32.20 Lon: 127.53 Height: 3.1 m
Data from the previous 72 hours. | See also: Recent months at Red Rocks Point
Date/Time
WST
Temp

°C
Wind Pressure Rain
since 9am
mm
Weather Cloud Vis
km
Sea
Height
m
Swell
Dir
 
Speed
knots
Gust
knots
hPa Trend Height
m
Period
s
Dir
25/03:30am 13.9 NW 7 8 1008.1 - 1.2 - - - - - - -
25/03:00am 13.9 WNW 5 6 1008.2 - 1.2 - - - - - - -
25/02:30am 14.2 W 5 7 1008.1 - 1.2 - - - - - - -
25/02:00am 14.5 WNW 5 7 1008.6 - 1.2 - - - - - - -
25/01:30am 14.8 W 5 6 1008.7 - 1.2 - - - - - - -
25/01:00am 14.9 W 7 10 1009.0 - 1.2 - - - - - - -
25/12:30am 15.3 WNW 6 10 1009.1 - 1.2 - - - - - - -
25/12:00am 15.4 WNW 8 11 1009.5 - 1.2 Recent precip. - - - - - -
 
Date/Time
WST
Temp

°C
Wind Pressure Rain
since 9am
mm
Weather Cloud Vis
km
Sea
Height
m
Swell
Dir
 
Speed
knots
Gust
knots
hPa Trend Height
m
Period
s
Dir
24/11:30pm 15.4 WNW 8 16 1009.8 - 1.2 - - - - - - -
24/11:00pm 15.5 W 11 15 1010.5 - 1.0 - - - - - - -
24/10:30pm 15.5 WNW 6 8 1010.4 - 1.0 - - - - - - -
24/10:00pm 15.2 NNW 6 8 1010.3 - 1.0 - - - - - - -
24/09:30pm 15.3 NW 7 11 1010.4 - 1.0 - - - - - - -
24/09:00pm 15.4 NW 7 9 1010.1 - 1.0 Rain - - - - - -
24/08:30pm 16.1 NW 6 8 1009.7 - 0.6 - - - - - - -
24/08:00pm 15.9 W 7 9 1009.4 - 0.6 - - - - - - -
24/07:30pm 15.6 W 5 7 1009.2 - 0.6 - - - - - - -
24/07:00pm 15.8 WNW 3 5 1008.9 - 0.6 - - - - - - -
24/06:30pm 16.4 WNW 6 9 1009.4 - 0.4 - - - - - - -
24/06:00pm 18.0 W 10 15 1009.6 - 0.0 - - - - - - -
24/05:30pm 18.4 WSW 8 11 1008.4 - 0.0 - - - - - - -
24/05:00pm 19.0 WSW 5 8 1007.8 - 0.0 - - - - - - -
24/04:50pm 19.9 WNW 9 14 1007.7 - 0.0 - - - - - - -
24/04:30pm 25.0 WNW 7 12 1006.7 - 0.0 - - - - - - -
24/04:00pm 25.8 W 11 16 1006.6 - 0.0 - - - - - - -
24/03:30pm 27.4 NW 9 14 1006.1 - 0.0 - - - - - - -
24/03:00pm 27.7 NW 13 21 1005.8 - 0.0 - - - - - - -
24/02:30pm 27.7 NNW 12 22 1005.8 - 0.0 - - - - - - -
24/02:00pm 27.5 NNW 11 18 1005.9 - 0.0 - - - - - - -
24/01:30pm 27.7 NNW 15 23 1006.1 - 0.0 - - - - - - -
24/01:00pm 27.7 NNW 16 27 1006.3 - 0.0 - - - - - - -
24/12:30pm 27.5 NW 15 25 1006.9 - 0.0 - - - - - - -
24/12:00pm 27.3 NNW 16 26 1007.7 - 0.0 - - - - - - -
24/11:48am 26.5 NNW 15 26 1008.0 - 0.0 - - - - - - -
24/11:30am 26.1 NNW 13 22 1008.4 - 0.0 - - - - - - -
24/11:20am 26.1 NNW 15 26 1008.6 - 0.0 - - - - - - -
24/11:00am 24.6 NNW 13 19 1009.3 - 0.0 - - - - - - -
24/10:30am 24.4 NNW 12 21 1009.8 - 0.0 - - - - - - -
24/10:00am 22.0 NNW 11 17 1011.1 - 0.0 - - - - - - -
24/09:30am 21.8 N 12 18 1011.2 - 0.0 - - - - - - -
24/09:00am 18.9 N 11 16 1012.0 - 0.0 - - - - - - -
24/08:30am 17.0 N 11 15 1012.3 - 0.0 - - - - - - -
24/08:00am 14.1 N 10 14 1012.5 - 0.0 - - - - - - -
24/07:30am 10.8 N 9 12 1012.6 - 0.0 - - - - - - -
24/07:00am 10.5 N 11 16 1012.8 - 0.0 - - - - - - -
24/06:30am 9.8 N 10 13 1013.0 - 0.0 - - - - - - -
24/06:00am 9.1 N 11 15 1013.0 - 0.0 - - - - - - -
24/05:30am 8.4 N 10 14 1013.7 - 0.0 - - - - - - -
24/05:00am 8.2 N 9 13 1013.9 - 0.0 - - - - - - -
24/04:30am 8.3 N 9 13 1013.9 - 0.0 - - - - - - -
24/04:00am 8.5 N 9 12 1014.4 - 0.0 - - - - - - -
24/03:30am 8.9 NNE 9 11 1014.8 - 0.0 - - - - - - -
24/03:00am 9.0 NNE 9 12 1015.1 - 0.0 - - - - - - -
24/02:30am 9.1 NNE 8 11 1015.6 - 0.0 - - - - - - -
24/02:00am 9.1 NNE 8 11 1016.0 - 0.0 - - - - - - -
24/01:30am 8.7 N 9 11 1016.3 - 0.0 - - - - - - -
24/01:00am 9.8 NNE 9 13 1016.6 - 0.0 - - - - - - -
24/12:30am 9.5 N 9 12 1017.2 - 0.0 - - - - - - -
24/12:00am 9.2 N 8 10 1017.5 - 0.0 - - - - - - -
 
Date/Time
WST
Temp

°C
Wind Pressure Rain
since 9am
mm
Weather Cloud Vis
km
Sea
Height
m
Swell
Dir
 
Speed
knots
Gust
knots
hPa Trend Height
m
Period
s
Dir
23/11:30pm 9.2 N 7 9 1017.8 - 0.0 - - - - - - -
23/11:00pm 10.1 N 9 11 1018.0 - 0.0 - - - - - - -
23/10:30pm 9.9 N 7 9 1018.3 - 0.0 - - - - - - -
23/10:00pm 10.5 N 7 9 1018.6 - 0.0 - - - - - - -
23/09:30pm 10.9 NNE 8 10 1018.9 - 0.0 - - - - - - -
23/09:00pm 11.9 NNE 9 11 1019.3 - 0.0 - - - - - - -
23/08:30pm 12.6 NNE 9 11 1019.5 - 0.0 - - - - - - -
23/08:00pm 12.8 NNE 8 11 1020.0 - 0.0 - - - - - - -
23/07:30pm 13.6 NNE 8 9 1020.2 - 0.0 - - - - - - -
23/07:00pm 14.0 NE 8 9 1020.3 - 0.0 - - - - - - -
23/06:30pm 15.0 NE 8 10 1020.7 - 0.0 - - - - - - -
23/06:00pm 14.9 NE 8 10 1020.7 - 0.0 - - - - - - -
23/05:30pm 15.3 NE 8 10 1020.8 - 0.0 - - - - - - -
23/05:00pm 16.0 NE 8 11 1020.5 - 0.0 - - - - - - -
23/04:30pm 16.7 ENE 8 10 1020.2 - 0.0 - - - - - - -
23/04:00pm 17.4 ENE 9 10 1020.7 - 0.0 - - - - - - -
23/03:30pm 17.4 ENE 10 11 1020.5 - 0.0 - - - - - - -
23/03:00pm 17.8 E 9 11 1020.6 - 0.0 - - - - - - -
23/02:30pm 18.3 ESE 9 11 1020.7 - 0.0 - - - - - - -
23/02:00pm 19.2 ESE 10 11 1020.7 - 0.0 - - - - - - -
23/01:30pm 19.2 SE 8 10 1021.3 - 0.0 - - - - - - -
23/01:00pm 19.9 ESE 7 11 1021.6 - 0.0 - - - - - - -
23/12:30pm 22.0 NW 6 9 1022.1 - 0.0 - - - - - - -
23/12:00pm 22.1 NNW 5 8 1022.6 - 0.0 - - - - - - -
23/11:30am 21.6 N 6 11 1023.1 - 0.0 - - - - - - -
23/11:00am 20.6 NW 6 8 1023.6 - 0.0 - - - - - - -
23/10:30am 20.2 NW 7 11 1024.1 - 0.0 - - - - - - -
23/10:00am 19.3 NNW 8 11 1024.3 - 0.0 - - - - - - -
23/09:30am 18.2 NNW 8 11 1024.6 - 0.0 - - - - - - -
23/09:00am 16.3 NW 9 12 1024.6 - 0.0 - - - - - - -
23/08:30am 13.7 NNW 8 11 1024.5 - 0.0 - - - - - - -
23/08:00am 11.3 NW 8 10 1024.4 - 0.0 - - - - - - -
23/07:30am 8.8 NW 8 11 1024.2 - 0.0 - - - - - - -
23/07:00am 6.8 NNW 9 11 1024.1 - 0.0 - - - - - - -
23/06:30am 6.5 NW 9 11 1023.7 - 0.0 - - - - - - -
23/06:00am 6.2 NW 9 11 1023.2 - 0.0 - - - - - - -
23/05:30am 5.5 NNW 10 13 1023.0 - 0.0 - - - - - - -
23/05:00am 5.3 NNW 11 13 1023.0 - 0.0 - - - - - - -
23/04:30am 5.8 NNW 10 12 1022.8 - 0.0 - - - - - - -
23/04:00am 7.0 NW 10 11 1022.8 - 0.0 - - - - - - -
23/03:30am 6.9 NW 8 10 1022.8 - 0.0 - - - - - - -
23/03:00am 6.9 NW 9 10 1022.9 - 0.0 - - - - - - -
23/02:30am 7.0 NW 8 11 1022.9 - 0.0 - - - - - - -
23/02:00am 6.5 NW 9 11 1022.8 - 0.0 - - - - - - -
23/01:30am 7.7 NW 8 10 1022.5 - 0.0 - - - - - - -
23/01:00am 7.4 NW 8 10 1022.3 - 0.0 - - - - - - -
23/12:30am 7.6 NW 9 10 1022.2 - 0.0 - - - - - - -
23/12:00am 7.9 NW 9 11 1022.1 - 0.0 - - - - - - -
 
Date/Time
WST
Temp

°C
Wind Pressure Rain
since 9am
mm
Weather Cloud Vis
km
Sea
Height
m
Swell
Dir
 
Speed
knots
Gust
knots
hPa Trend Height
m
Period
s
Dir
22/11:30pm 7.8 NW 9 10 1022.0 - 0.0 - - - - - - -
22/11:00pm 7.2 NNW 8 10 1022.0 - 0.0 - - - - - - -
22/10:30pm 7.4 NNW 8 10 1021.8 - 0.0 - - - - - - -
22/10:00pm 7.3 NNW 9 11 1021.7 - 0.0 - - - - - - -
22/09:30pm 8.1 NNW 9 10 1021.7 - 0.0 - - - - - - -
22/09:00pm 8.8 NNW 9 10 1021.8 - 0.0 - - - - - - -
22/08:30pm 8.8 NNW 8 9 1021.7 - 0.0 - - - - - - -
22/08:00pm 9.2 NNW 8 9 1021.3 - 0.0 - - - - - - -
22/07:30pm 9.4 NNW 8 9 1020.9 - 0.0 - - - - - - -
22/07:00pm 9.5 NW 7 8 1020.6 - 0.0 - - - - - - -
22/06:30pm 10.5 NW 7 8 1020.0 - 0.0 - - - - - - -
22/06:00pm 11.1 WNW 7 8 1019.5 - 0.0 - - - - - - -
22/05:30pm 12.1 WNW 6 7 1018.9 - 0.0 - - - - - - -
22/05:00pm 14.4 W 6 9 1018.4 - 0.0 - - - - - - -
22/04:30pm 15.2 WSW 9 13 1017.8 - 0.0 - - - - - - -
22/04:00pm 16.4 WSW 10 15 1017.5 - 0.0 - - - - - - -
22/03:30pm 17.1 WSW 11 17 1016.9 - 0.0 - - - - - - -
22/03:00pm 17.5 WSW 12 18 1016.5 - 0.0 - - - - - - -
22/02:30pm 17.8 SW 13 19 1016.3 - 0.0 - - - - - - -
22/02:00pm 18.2 WSW 14 19 1015.9 - 0.0 - - - - - - -
22/01:30pm 17.7 WSW 14 21 1015.5 - 0.0 - - - - - - -
22/01:00pm 18.0 WSW 14 21 1015.3 - 0.0 - - - - - - -
22/12:30pm 17.9 WSW 14 23 1015.2 - 0.0 - - - - - - -
22/12:00pm 18.0 WSW 13 24 1015.1 - 0.0 - - - - - - -
22/11:30am 17.9 WSW 14 22 1014.8 - 0.0 - - - - - - -
22/11:00am 17.4 W 14 23 1015.1 - 0.0 - - - - - - -
22/10:46am 16.9 W 15 25 1015.1 - 0.0 - - - - - - -
22/10:30am 16.4 W 17 25 1015.2 - 0.0 - - - - - - -
22/10:00am 16.0 W 14 23 1015.0 - 0.0 - - - - - - -
22/09:30am 14.8 W 15 25 1014.5 - 0.0 - - - - - - -
22/09:05am 14.2 W 15 25 1014.2 - 0.0 - - - - - - -
22/09:00am 14.2 WNW 13 22 1014.2 - 2.2 - - - - - - -
22/08:30am 13.4 WNW 14 22 1013.9 - 2.2 - - - - - - -
22/08:14am 12.9 WNW 15 27 1013.8 - 2.2 - - - - - - -
22/08:00am 12.6 WNW 14 20 1013.5 - 2.2 - - - - - - -
22/07:30am 11.9 WNW 15 26 1012.8 - 2.2 - - - - - - -
22/07:29am 11.9 WNW 15 26 1012.8 - 2.2 - - - - - - -
22/07:00am 11.4 WNW 12 19 1012.1 - 2.2 - - - - - - -
22/06:30am 11.2 WNW 13 20 1011.3 - 2.2 - - - - - - -
22/06:00am 11.3 WNW 11 18 1010.6 - 2.2 - - - - - - -
22/05:30am 11.7 WNW 13 19 1009.7 - 2.2 - - - - - - -
22/05:00am 12.0 WNW 11 18 1008.9 - 2.2 - - - - - - -
22/04:30am 12.6 WNW 14 22 1008.4 - 2.2 - - - - - - -
22/04:00am 12.8 WNW 12 21 1007.7 - 2.2 - - - - - - -

Other Formats:

Comma delimited format used in spreadsheet applications
http://www.bom.gov.au/fwo/IDW60701/IDW60701.94644.axf

JavaScript Object Notation format (JSON) in row-major order
http://www.bom.gov.au/fwo/IDW60701/IDW60701.94644.json